Impacts METAR Board
IDs:

KASD - Slidell Arpt, LA, US

Updated at: 0900 UTC 17 Aug 2018
Potential Impact None Slight Moderate High
Time 16/21Z 16/22Z 16/23Z 17/00Z 17/01Z 17/02Z 17/03Z 17/04Z 17/05Z 17/06Z 17/07Z 17/08Z 17/09Z
Temp88 88 87 86 83 80 77 76 76 76 76 78 75
Dewpt74 73 73 75 75 70 72 72 72 73 73 75 73
Altim30.06 30.07 30.07 30.07 30.09 30.09 30.09 30.09 30.10 30.10 30.09 30.08 30.09
VIS10 10 10 10 10 10 10 10 10 10 10 10 10
CIG-- -- -- -- -- -- -- -- -- -- -- -- --
CoverFEWCLRCLRCLRFEWCLRCLRCLRCLRCLRFEWCLRFEW
FltCatVFRVFRVFRVFRVFRVFRVFRVFRVFRVFRVFRVFRVFR
WX------VCTSTS----------------
WDir1301601701801600000001800
WSpd7 9 8 5 4 0 0 0 0 0 0 3 0
WGst-- -- -- -- -- -- -- -- -- -- -- -- --
Raw hourly METARs
KASD 162053Z AUTO 13007KT 10SM FEW029 31/23 A3006 RMK AO2 SLP178 60094 T03110233 58011
KASD 162153Z AUTO 16009KT 10SM CLR 31/23 A3007 RMK AO2 SLP181 T03110228
KASD 162253Z AUTO 17008KT 10SM CLR 31/23 A3007 RMK AO2 SLP182 T03060228
KASD 162353Z AUTO 18005KT 10SM VCTS CLR 30/24 A3007 RMK AO2 LTG DSNT SW SLP183 60094 T03000239 10317 20256 51005
KASD 170053Z AUTO 16004KT 10SM TS FEW065 28/24 A3009 RMK AO2 LTG DSNT SW TSB47 SLP189 T02830239
KASD 170153Z AUTO 00000KT 10SM CLR 27/21 A3009 RMK AO2 TSE02 SLP189 T02670211
KASD 170253Z AUTO 00000KT 10SM CLR 25/22 A3009 RMK AO2 SLP188 T02500222 50005
KASD 170353Z AUTO 00000KT 10SM CLR 24/22 A3009 RMK AO2 SLP190 T02440222
KASD 170453Z AUTO 00000KT 10SM CLR 24/22 A3010 RMK AO2 SLP192 T02440222
KASD 170553Z AUTO 00000KT 10SM CLR 24/23 A3010 RMK AO2 SLP192 T02440228 10300 20244 403280233 51004
KASD 170653Z AUTO 00000KT 10SM FEW027 24/23 A3009 RMK AO2 SLP190 T02440228
KASD 170753Z AUTO 18003KT 10SM CLR 26/24 A3008 RMK AO2 SLP185 T02560239
KASD 170853Z AUTO 00000KT 10SM FEW037 24/23 A3009 RMK AO2 SLP189 T02390228 55003



Page loaded:  09:32 UTC  |   02:32 AM Pacific  |   03:32 AM Mountain  |   04:32 AM Central  |   05:32 AM Eastern

 

ADVISORIES

FORECASTS

FORECASTS

OBSERVATIONS

USER TOOLS

ABOUT US